createdAt,value
2019-01-05T00:00:42.221Z,3.20
2019-01-05T00:03:31.551Z,3.10
2019-01-05T00:06:17.442Z,3.20
2019-01-05T00:09:17.098Z,3.20
2019-01-05T00:12:11.112Z,3.20
2019-01-05T00:15:08.143Z,3.20
2019-01-05T00:17:54.666Z,3.10
2019-01-05T00:20:33.572Z,3.10
2019-01-05T00:23:26.221Z,3.10
2019-01-05T00:26:12.868Z,3.10
2019-01-05T00:28:59.948Z,3.10
2019-01-05T00:32:00.339Z,3.10
2019-01-05T00:35:00.236Z,3.10
2019-01-05T00:37:51.361Z,3.10
2019-01-05T00:40:39.371Z,3.10
2019-01-05T00:43:26.671Z,3.10
2019-01-05T00:46:23.082Z,3.10
2019-01-05T00:49:36.438Z,3.00
2019-01-05T00:52:22.941Z,3.00
2019-01-05T00:55:09.352Z,3.00
2019-01-05T00:58:15.830Z,3.00
2019-01-05T01:01:02.558Z,3.00
2019-01-05T01:03:49.252Z,3.00
2019-01-05T01:06:39.458Z,3.00
2019-01-05T01:09:19.791Z,3.00
2019-01-05T01:12:23.065Z,3.00
2019-01-05T01:15:09.011Z,3.00
2019-01-05T01:18:14.654Z,3.10
2019-01-05T01:21:02.438Z,3.10
2019-01-05T01:23:48.799Z,3.00
2019-01-05T01:26:36.747Z,3.10
2019-01-05T01:29:27.693Z,3.00
2019-01-05T01:32:09.740Z,3.00
2019-01-05T01:34:56.864Z,3.00
2019-01-05T01:38:41.932Z,3.00
2019-01-05T01:41:39.331Z,3.00
2019-01-05T01:44:36.622Z,2.90
2019-01-05T01:47:31.057Z,2.90
2019-01-05T01:50:20.609Z,2.90
2019-01-05T01:53:08.581Z,2.90
2019-01-05T01:55:58.766Z,2.90
2019-01-05T01:59:08.301Z,2.90
2019-01-05T02:02:03.334Z,2.90
2019-01-05T02:05:05.931Z,2.90
2019-01-05T02:08:08.849Z,2.90
2019-01-05T02:11:00.903Z,2.90
2019-01-05T02:13:54.680Z,2.90
2019-01-05T02:16:48.043Z,2.80
2019-01-05T02:19:54.306Z,2.80
2019-01-05T02:23:31.286Z,2.90
2019-01-05T02:27:14.563Z,2.80
2019-01-05T02:30:40.157Z,2.80
2019-01-05T02:33:57.280Z,2.80
2019-01-05T02:37:14.547Z,2.80
2019-01-05T02:40:47.572Z,2.80
2019-01-05T02:44:12.448Z,2.80
2019-01-05T02:48:00.358Z,2.70
2019-01-05T02:51:19.536Z,2.70
2019-01-05T02:55:01.521Z,2.70
2019-01-05T02:58:32.566Z,2.70
2019-01-05T03:02:06.689Z,2.70
2019-01-05T03:05:24.489Z,2.70
2019-01-05T03:08:28.123Z,2.60
2019-01-05T03:11:46.322Z,2.70
2019-01-05T03:15:07.071Z,2.70
2019-01-05T03:18:52.197Z,2.70
2019-01-05T03:22:10.459Z,2.80
2019-01-05T03:25:22.960Z,2.70
2019-01-05T03:28:47.565Z,2.70
2019-01-05T03:31:53.630Z,2.70
2019-01-05T03:35:45.726Z,2.80
2019-01-05T03:39:09.695Z,2.80
2019-01-05T03:42:23.481Z,2.80
2019-01-05T03:45:29.364Z,2.80
2019-01-05T03:49:06.856Z,2.80
2019-01-05T03:52:43.937Z,2.80
2019-01-05T03:56:14.995Z,2.80
2019-01-05T03:59:36.210Z,2.90
2019-01-05T04:03:21.757Z,2.90
2019-01-05T04:06:58.631Z,2.90
2019-01-05T04:10:26.847Z,2.90
2019-01-05T04:14:17.419Z,2.80
2019-01-05T04:18:07.907Z,2.80
2019-01-05T04:21:50.569Z,2.80
2019-01-05T04:24:58.197Z,2.70
2019-01-05T04:28:35.236Z,2.70
2019-01-05T04:32:23.138Z,2.70
2019-01-05T04:35:45.805Z,2.60
2019-01-05T04:39:12.060Z,2.50
2019-01-05T04:42:39.385Z,2.50
2019-01-05T04:46:21.967Z,2.50
2019-01-05T04:49:55.696Z,2.40
2019-01-05T04:53:49.565Z,2.40
2019-01-05T04:57:19.612Z,2.40
2019-01-05T05:00:53.092Z,2.40
2019-01-05T05:04:34.214Z,2.40
2019-01-05T05:08:00.998Z,2.40
2019-01-05T05:11:20.540Z,2.40
2019-01-05T05:15:09.285Z,2.40
2019-01-05T05:18:58.833Z,2.40
2019-01-05T05:22:51.060Z,2.40
2019-01-05T05:26:40.649Z,2.40
2019-01-05T05:30:21.881Z,2.40
2019-01-05T05:33:59.022Z,2.40
2019-01-05T05:37:32.775Z,2.30
2019-01-05T05:41:04.738Z,2.30
2019-01-05T05:44:37.185Z,2.30
2019-01-05T05:47:45.235Z,2.20
2019-01-05T05:51:11.763Z,2.20
2019-01-05T05:54:43.940Z,2.30
2019-01-05T05:58:06.136Z,2.20
2019-01-05T06:01:59.338Z,2.20
2019-01-05T06:05:36.430Z,2.20
2019-01-05T06:09:16.614Z,2.20
2019-01-05T06:12:59.909Z,2.20
2019-01-05T06:16:24.813Z,2.20
2019-01-05T06:20:11.514Z,2.20
2019-01-05T06:23:35.023Z,2.20
2019-01-05T06:27:31.031Z,2.20
2019-01-05T06:30:53.476Z,2.20
2019-01-05T06:34:35.105Z,2.20
2019-01-05T06:38:13.110Z,2.20
2019-01-05T06:41:54.080Z,2.20
2019-01-05T06:45:27.562Z,2.20
2019-01-05T06:48:55.503Z,2.20
2019-01-05T06:52:27.389Z,2.20
2019-01-05T06:56:01.056Z,2.20
2019-01-05T06:59:14.597Z,2.20
2019-01-05T07:02:34.479Z,2.20
2019-01-05T07:06:18.802Z,2.20
2019-01-05T07:09:58.388Z,2.20
2019-01-05T07:13:53.070Z,2.20
2019-01-05T07:17:42.370Z,2.20
2019-01-05T07:21:42.098Z,2.20
2019-01-05T07:25:24.891Z,2.20
2019-01-05T07:28:56.968Z,2.10
2019-01-05T07:32:24.428Z,2.10
2019-01-05T07:35:52.168Z,2.10
2019-01-05T07:39:36.106Z,2.10
2019-01-05T07:43:07.774Z,2.20
2019-01-05T07:46:51.855Z,2.20
2019-01-05T07:50:29.676Z,2.20
2019-01-05T07:54:07.030Z,2.20
2019-01-05T07:57:51.489Z,2.20
2019-01-05T08:01:30.917Z,2.20
2019-01-05T08:04:55.653Z,2.20
2019-01-05T08:08:17.673Z,2.20
2019-01-05T08:11:56.312Z,2.20
2019-01-05T08:15:25.979Z,2.20
2019-01-05T08:18:51.023Z,2.20
2019-01-05T08:22:27.346Z,2.20
2019-01-05T08:26:05.082Z,2.20
2019-01-05T08:29:50.794Z,2.30
2019-01-05T08:33:33.361Z,2.30
2019-01-05T08:37:26.482Z,2.30
2019-01-05T08:41:13.177Z,2.30
2019-01-05T08:44:44.153Z,2.30
2019-01-05T08:48:09.328Z,2.30
2019-01-05T08:51:50.953Z,2.30
2019-01-05T08:55:22.213Z,2.40
2019-01-05T08:58:57.967Z,2.40
2019-01-05T09:02:51.392Z,2.40
2019-01-05T09:06:17.687Z,2.40
2019-01-05T09:09:23.348Z,2.40
2019-01-05T09:12:50.195Z,2.40
2019-01-05T09:16:36.808Z,2.40
2019-01-05T09:20:03.910Z,2.40
2019-01-05T09:23:27.771Z,2.50
2019-01-05T09:27:06.621Z,2.50
2019-01-05T09:31:02.914Z,2.50
2019-01-05T09:35:01.778Z,2.60
2019-01-05T09:38:57.265Z,2.60
2019-01-05T09:42:33.000Z,2.70
2019-01-05T09:46:11.218Z,2.70
2019-01-05T09:49:27.282Z,2.80
2019-01-05T09:53:17.356Z,2.80
2019-01-05T09:56:59.521Z,2.90
2019-01-05T10:00:30.354Z,2.90
2019-01-05T10:04:21.694Z,2.90
2019-01-05T10:08:10.928Z,2.90
2019-01-05T10:11:44.935Z,2.90
2019-01-05T10:15:11.779Z,2.90
2019-01-05T10:18:51.347Z,2.90
2019-01-05T10:22:22.064Z,2.90
2019-01-05T10:26:05.070Z,3.00
2019-01-05T10:29:48.870Z,2.90
2019-01-05T10:33:41.377Z,3.00
2019-01-05T10:37:20.941Z,3.00
2019-01-05T10:40:50.866Z,3.00
2019-01-05T10:44:21.401Z,3.00
2019-01-05T10:47:57.037Z,3.00
2019-01-05T10:51:32.212Z,3.10
2019-01-05T10:55:06.428Z,3.10
2019-01-05T10:58:32.048Z,3.20
2019-01-05T11:02:19.479Z,3.20
2019-01-05T11:06:11.622Z,3.30
2019-01-05T11:09:29.245Z,3.30
2019-01-05T11:13:08.597Z,3.30
2019-01-05T11:20:41.418Z,3.30
2019-01-05T11:24:19.039Z,3.30
2019-01-05T11:31:58.001Z,3.30
2019-01-05T11:35:19.772Z,3.20
2019-01-05T11:38:52.465Z,3.30
2019-01-05T11:42:12.692Z,3.30
2019-01-05T11:45:54.507Z,3.40
2019-01-05T11:49:30.702Z,3.50
2019-01-05T11:53:10.326Z,3.50
2019-01-05T11:56:33.499Z,3.50
2019-01-05T12:00:05.065Z,3.60
2019-01-05T12:03:45.044Z,3.70
2019-01-05T12:07:09.595Z,3.70
2019-01-05T12:10:38.320Z,3.70
2019-01-05T12:14:01.084Z,3.70
2019-01-05T12:17:33.552Z,3.80
2019-01-05T12:21:02.064Z,3.80
2019-01-05T12:24:48.549Z,3.80
2019-01-05T12:28:27.814Z,3.80
2019-01-05T12:31:59.992Z,3.80
2019-01-05T12:35:13.169Z,3.80
2019-01-05T12:38:27.856Z,3.80
2019-01-05T12:45:39.690Z,3.90
2019-01-05T12:49:24.594Z,3.90
2019-01-05T12:52:50.915Z,3.90
2019-01-05T12:56:28.445Z,3.90
2019-01-05T12:59:57.109Z,4.00
2019-01-05T13:03:33.844Z,3.90
2019-01-05T13:11:02.737Z,3.90
2019-01-05T13:14:23.656Z,3.90
2019-01-05T13:18:21.905Z,4.00
2019-01-05T13:22:06.658Z,4.00
2019-01-05T13:25:41.167Z,4.00
2019-01-05T13:29:34.685Z,4.00
2019-01-05T13:33:02.539Z,4.00
2019-01-05T13:36:57.758Z,4.00
2019-01-05T13:40:00.274Z,4.00
2019-01-05T13:43:24.114Z,4.00
2019-01-05T13:46:49.252Z,4.10
2019-01-05T13:50:27.204Z,4.10
2019-01-05T13:53:59.108Z,4.10
2019-01-05T13:56:51.032Z,4.10
2019-01-05T13:59:36.919Z,4.10
2019-01-05T14:02:22.608Z,4.10
2019-01-05T14:05:21.888Z,4.10
2019-01-05T14:08:12.936Z,4.10
2019-01-05T14:10:59.081Z,4.10
2019-01-05T14:13:47.046Z,4.10
2019-01-05T14:16:35.377Z,4.10
2019-01-05T14:19:38.753Z,4.10
2019-01-05T14:22:55.609Z,4.10
2019-01-05T14:29:45.196Z,4.10
2019-01-05T14:32:41.188Z,4.10
2019-01-05T14:35:31.524Z,4.10
2019-01-05T14:38:25.255Z,4.10
2019-01-05T14:41:12.564Z,4.00
2019-01-05T14:43:57.122Z,4.10
2019-01-05T14:46:41.720Z,4.10
2019-01-05T14:49:35.037Z,4.10
2019-01-05T14:52:21.219Z,4.10
2019-01-05T14:55:17.441Z,4.10
2019-01-05T14:58:03.017Z,4.00
2019-01-05T15:00:49.161Z,4.10
2019-01-05T15:03:36.323Z,4.10
2019-01-05T15:06:32.678Z,4.10
2019-01-05T15:09:25.775Z,4.10
2019-01-05T15:12:12.329Z,4.10
2019-01-05T15:14:57.224Z,4.10
2019-01-05T15:17:43.435Z,4.10
2019-01-05T15:20:33.323Z,4.10
2019-01-05T15:23:23.403Z,4.20
2019-01-05T15:26:19.665Z,4.20
2019-01-05T15:29:22.735Z,4.20
2019-01-05T15:32:08.383Z,4.20
2019-01-05T15:34:55.734Z,4.20
2019-01-05T15:37:58.131Z,4.20
2019-01-05T15:40:44.011Z,4.20
2019-01-05T15:43:41.222Z,4.20
2019-01-05T15:46:42.672Z,4.20
2019-01-05T15:49:47.367Z,4.20
2019-01-05T15:52:32.874Z,4.20
2019-01-05T15:55:18.766Z,4.30
2019-01-05T15:58:06.867Z,4.30
2019-01-05T16:00:55.975Z,4.30
2019-01-05T16:03:41.856Z,4.40
2019-01-05T16:06:47.427Z,4.30
2019-01-05T16:09:34.677Z,4.40
2019-01-05T16:12:24.994Z,4.40
2019-01-05T16:15:18.178Z,4.50
2019-01-05T16:18:06.236Z,4.50
2019-01-05T16:20:59.734Z,4.50
2019-01-05T16:24:02.169Z,4.50
2019-01-05T16:26:59.165Z,4.50
2019-01-05T16:29:45.925Z,4.50
2019-01-05T16:32:31.734Z,4.50
2019-01-05T16:35:17.547Z,4.50
2019-01-05T16:38:15.162Z,4.50
2019-01-05T16:41:13.341Z,4.50
2019-01-05T16:43:51.253Z,4.50
2019-01-05T16:46:57.342Z,4.50
2019-01-05T16:49:47.525Z,4.40
2019-01-05T16:52:40.692Z,4.40
2019-01-05T16:55:26.550Z,4.50
2019-01-05T16:58:12.444Z,4.50
2019-01-05T17:01:11.564Z,4.50
2019-01-05T17:04:08.927Z,4.50
2019-01-05T17:06:59.295Z,4.50
2019-01-05T17:09:56.702Z,4.50
2019-01-05T17:12:49.603Z,4.50
2019-01-05T17:15:44.873Z,4.60
2019-01-05T17:18:30.572Z,4.60
2019-01-05T17:21:22.956Z,4.60
2019-01-05T17:24:28.543Z,4.60
2019-01-05T17:27:15.629Z,4.60
2019-01-05T17:30:02.973Z,4.60
2019-01-05T17:32:48.771Z,4.60
2019-01-05T17:35:45.266Z,4.70
2019-01-05T17:38:40.656Z,4.70
2019-01-05T17:41:35.257Z,4.70
2019-01-05T17:44:22.529Z,4.80
2019-01-05T17:47:03.945Z,4.80
2019-01-05T17:49:54.482Z,4.80
2019-01-05T17:53:05.582Z,4.80
2019-01-05T17:55:56.410Z,4.80
2019-01-05T17:58:42.391Z,4.80
2019-01-05T18:01:27.916Z,4.80
2019-01-05T18:04:13.615Z,4.80
2019-01-05T18:06:59.489Z,4.80
2019-01-05T18:09:45.391Z,4.80
2019-01-05T18:12:32.328Z,4.80
2019-01-05T18:15:22.710Z,4.80
2019-01-05T18:18:08.518Z,4.80
2019-01-05T18:21:04.540Z,4.80
2019-01-05T18:23:50.424Z,4.80
2019-01-05T18:26:36.709Z,4.80
2019-01-05T18:29:31.770Z,4.80
2019-01-05T18:32:17.867Z,4.80
2019-01-05T18:35:20.152Z,4.90
2019-01-05T18:38:17.421Z,4.90
2019-01-05T18:41:03.049Z,4.90
2019-01-05T18:43:52.989Z,4.90
2019-01-05T18:46:42.850Z,4.90
2019-01-05T18:49:23.691Z,5.00
2019-01-05T18:52:10.946Z,5.00
2019-01-05T18:55:06.924Z,4.90
2019-01-05T18:58:06.352Z,5.00
2019-01-05T19:00:53.700Z,5.00
2019-01-05T19:03:39.439Z,5.00
2019-01-05T19:06:41.972Z,5.00
2019-01-05T19:09:27.833Z,5.00
2019-01-05T19:12:16.549Z,5.00
2019-01-05T19:15:04.193Z,5.00
2019-01-05T19:17:52.106Z,5.00
2019-01-05T19:20:37.779Z,5.10
2019-01-05T19:23:41.581Z,5.00
2019-01-05T19:26:27.594Z,5.10
2019-01-05T19:29:26.764Z,5.10
2019-01-05T19:32:12.439Z,5.10
2019-01-05T19:34:58.055Z,5.00
2019-01-05T19:37:43.895Z,5.10
2019-01-05T19:40:29.944Z,5.10
2019-01-05T19:43:17.131Z,5.10
2019-01-05T19:46:16.462Z,5.20
2019-01-05T19:49:02.218Z,5.10
2019-01-05T19:51:55.055Z,5.20
2019-01-05T19:54:48.007Z,5.20
2019-01-05T19:57:33.781Z,5.20
2019-01-05T20:00:30.843Z,5.20
2019-01-05T20:03:24.250Z,5.20
2019-01-05T20:06:11.565Z,5.20
2019-01-05T20:09:01.806Z,5.20
2019-01-05T20:11:50.788Z,5.30
2019-01-05T20:14:37.213Z,5.20
2019-01-05T20:17:39.680Z,5.30
2019-01-05T20:20:24.493Z,5.20
2019-01-05T20:23:17.847Z,5.20
2019-01-05T20:26:17.749Z,5.20
2019-01-05T20:29:03.737Z,5.20
2019-01-05T20:31:49.735Z,5.20
2019-01-05T20:34:51.998Z,5.20
2019-01-05T20:37:47.960Z,5.20
2019-01-05T20:40:26.570Z,5.20
2019-01-05T20:43:12.788Z,5.20
2019-01-05T20:46:09.278Z,5.20
2019-01-05T20:49:08.299Z,5.20
2019-01-05T20:52:01.248Z,5.20
2019-01-05T20:54:57.729Z,5.20
2019-01-05T20:57:57.280Z,5.30
2019-01-05T21:00:44.837Z,5.30
2019-01-05T21:03:30.654Z,5.30
2019-01-05T21:06:24.441Z,5.30
2019-01-05T21:09:23.930Z,5.30
2019-01-05T21:12:09.932Z,5.30
2019-01-05T21:14:55.710Z,5.30
2019-01-05T21:17:48.939Z,5.30
2019-01-05T21:20:35.961Z,5.30
2019-01-05T21:23:21.815Z,5.30
2019-01-05T21:26:12.179Z,5.30
2019-01-05T21:29:19.416Z,5.30
2019-01-05T21:32:16.388Z,5.30
2019-01-05T21:35:01.425Z,5.30
2019-01-05T21:38:04.116Z,5.30
2019-01-05T21:41:04.920Z,5.30
2019-01-05T21:43:50.743Z,5.30
2019-01-05T21:46:50.146Z,5.30
2019-01-05T21:49:55.699Z,5.40
2019-01-05T21:52:54.839Z,5.30
2019-01-05T21:55:48.219Z,5.30
2019-01-05T21:58:47.145Z,5.30
2019-01-05T22:01:37.037Z,5.30
2019-01-05T22:04:24.307Z,5.30
2019-01-05T22:07:20.476Z,5.30
2019-01-05T22:10:10.577Z,5.30
2019-01-05T22:12:56.182Z,5.30
2019-01-05T22:15:42.294Z,5.30
2019-01-05T22:18:35.891Z,5.30
2019-01-05T22:21:21.900Z,5.30
2019-01-05T22:24:07.527Z,5.30
2019-01-05T22:26:53.469Z,5.30
2019-01-05T22:29:40.591Z,5.30
2019-01-05T22:32:36.598Z,5.30
2019-01-05T22:35:22.680Z,5.30
2019-01-05T22:38:12.610Z,5.30
2019-01-05T22:40:58.779Z,5.30
2019-01-05T22:43:48.712Z,5.30
2019-01-05T22:46:35.802Z,5.30
2019-01-05T22:49:21.298Z,5.30
2019-01-05T22:52:17.643Z,5.30
2019-01-05T22:55:16.875Z,5.30
2019-01-05T22:58:06.739Z,5.30
2019-01-05T23:00:51.770Z,5.20
2019-01-05T23:03:45.954Z,5.20
2019-01-05T23:06:33.381Z,5.30
2019-01-05T23:09:16.479Z,5.20
2019-01-05T23:12:02.197Z,5.20
2019-01-05T23:14:48.083Z,5.20
2019-01-05T23:17:35.379Z,5.20
2019-01-05T23:20:31.939Z,5.20
2019-01-05T23:23:18.144Z,5.20
2019-01-05T23:26:06.137Z,5.20
2019-01-05T23:28:59.653Z,5.20
2019-01-05T23:31:50.099Z,5.20
2019-01-05T23:34:33.994Z,5.20
2019-01-05T23:37:33.555Z,5.20
2019-01-05T23:40:23.811Z,5.20
2019-01-05T23:43:26.392Z,5.20
2019-01-05T23:46:19.486Z,5.20
2019-01-05T23:49:12.386Z,5.20
2019-01-05T23:51:57.896Z,5.30
2019-01-05T23:54:51.739Z,5.20
2019-01-05T23:57:37.576Z,5.20
